Cape Canaveral AFS Skid Strip
KXMR : now visible

Airfield :











YOU CAN JOIN US ON...

 
LOGIN :

Register | Disclaimer

   EN    FR    IT 

 









Legend :    VFR   Marginal VFR   IFR   Intensive IFR   Very Intensive IFR
Visi :
Ceiling :
>= 8 km
>= 3000ft
5 to 8 km
1000 to 3000 ft
1500m to 5 km
500 to 1000 ft
800 to 1500m
200 to 500 ft
< 800m
< 200 ft
Symbols :   Thunderstorms  Fog  Heavy snow  Heavy precipitations  Wind > 20 kt






- Airport Elevation : 10 ft


KXMR - Cape Canaveral AFS Skid Strip

CURRENT METAR :
  • 100856Z AUTO 28010KT 10SM SCT009 23/21 A2976 RMK AO2 SLP081 T02290213 55003 $

EXPIRED METARs :
  • 100756Z AUTO 27011KT 10SM CLR 23/21 A2975 RMK AO2 SLP077 T02300214 $
  • 100656Z AUTO 26010KT 10SM CLR 23/21 A2976 RMK AO2 SLP081 T02330212 $

TAF N/A



MET'MAP, your aeronautical weather chart ! - Copyright ORBIFLY December 2007 - Disclaimer

ORBIFLY MET'MAP TEAM :

Programming & Development : Alexandra Zaïnal
Concept & original design : Baudouin d'Aumeries
Assistance for programming : Marc-Olivier Méhu
Technical & hardware support : Manuel Goepfert

Contact : metmap@orbifly.com




SOURCES & CREDITS :

   NOAA       Earth
Advisory